Flight Track Log - Related Links

Times and Time Zones

All times are in EDT time to prevent confusion due to time zone crossing. See the ASH3770 flight status page for this flight to view local times or setup timezone preferences in your user account.

Time Position Orientation Groundspeed Altitude Reporting Facility
EDT Latitude Longitude Course Direction KTS MPH feet Rate Location/Type
Mon 12:57:23 PM 38.9333 -77.5500 237° Southwest 206 237 2,200  Level Potomac TRACON
Mon 12:58:23 PM 38.9000 -77.6167 237° Southwest 241 277 4,400 2,500 Climbing Potomac TRACON
Mon 12:59:23 PM 38.8667 -77.7000 243° Southwest 270 311 7,200 2,777 Climbing Potomac TRACON
Mon 01:00:24 PM 38.8333 -77.7833 243° Southwest 271 312 10,000 2,035 Climbing Potomac TRACON
Mon 01:01:18 PM 38.7981 -77.8744 244° Southwest 288 331 11,100 1,737 Climbing Washington Center
Mon 01:02:18 PM 38.7958 -77.9861 269° West 301 346 13,300 2,250 Climbing Washington Center
Mon 01:03:18 PM 38.8267 -78.1017 289° West 314 361 15,600 1,850 Climbing Washington Center
Mon 01:04:18 PM 38.8497 -78.1933 288° West 322 371 17,000 1,600 Climbing Washington Center
Mon 01:05:18 PM 38.8528 -78.3400 272° West 341 392 18,800 1,850 Climbing Washington Center
Mon 01:06:18 PM 38.8519 -78.4678 270° West 352 405 20,700 1,750 Climbing Washington Center
Mon 01:07:18 PM 38.8508 -78.5958 269° West 358 412 22,300 1,550 Climbing Washington Center
Mon 01:08:18 PM 38.8497 -78.7236 269° West 358 412 23,800 1,350 Climbing Washington Center
Mon 01:09:18 PM 38.8483 -78.8542 269° West 368 423 25,000 1,100 Climbing Washington Center
Mon 01:10:18 PM 38.8447 -78.9875 268° West 368 423 26,000 950 Climbing Washington Center
Mon 01:11:18 PM 38.8428 -79.1233 269° West 374 430 26,900 850 Climbing Washington Center
Mon 01:12:18 PM 38.8322 -79.2639 265° West 386 444 27,700 950 Climbing Washington Center
Mon 01:13:18 PM 38.8092 -79.4014 258° West 396 456 28,800 1,150 Climbing Washington Center
Mon 01:14:18 PM 38.7819 -79.5383 256° West 396 456 30,000 850 Climbing Washington Center
Mon 01:15:18 PM 38.7561 -79.6836 257° West 414 476 30,500 500 Climbing Washington Center
Mon 01:16:18 PM 38.7325 -79.8233 258° West 414 476 31,000 600 Climbing Washington Center
Mon 01:17:18 PM 38.7044 -79.9653 256° West 414 476 31,700 800 Climbing Washington Center
Mon 01:19:03 PM 38.6592 -80.1872 255° West 403 464 33,200 790 Climbing Indianapolis Center
Mon 01:20:05 PM 38.6322 -80.3272 256° West 403 464 33,900 387 Climbing Indianapolis Center
Mon 01:21:07 PM 38.6058 -80.4681 257° West 406 467 34,000 49 Climbing Indianapolis Center
Mon 01:22:08 PM 38.5561 -80.6017 245° Southwest 413 475 34,000  Level Indianapolis Center
Mon 01:23:10 PM 38.4883 -80.7589 241° Southwest 420 483 34,000  Level Indianapolis Center
Mon 01:24:12 PM 38.4208 -80.8794 234° Southwest 416 479 34,000  Level Indianapolis Center
Mon 01:25:14 PM 38.3492 -80.9983 232° Southwest 419 482 34,000  Level Indianapolis Center
Mon 01:26:16 PM 38.3156 -81.1444 254° West 427 491 34,000  Level Indianapolis Center
Mon 01:27:18 PM 38.2856 -81.2919 256° West 428 493 34,000  Level Indianapolis Center
Mon 01:28:20 PM 38.2558 -81.4392 256° West 428 493 34,000 97 Level Indianapolis Center
Mon 01:29:22 PM 38.2247 -81.5881 255° West 430 495 34,200 532 Climbing Indianapolis Center
Mon 01:30:24 PM 38.1947 -81.7347 255° West 426 490 35,100 823 Climbing Indianapolis Center
Mon 01:31:26 PM 38.1647 -81.8761 255° West 415 478 35,900 823 Climbing Indianapolis Center
Mon 01:32:28 PM 38.1294 -82.0433 255° West 409 471 36,800 823 Climbing Indianapolis Center
Mon 01:33:30 PM 38.1019 -82.1708 255° West 395 455 37,600 585 Climbing Indianapolis Center
Mon 01:34:31 PM 38.0739 -82.3000 255° West 384 442 38,000 195 Climbing Indianapolis Center
Mon 01:35:33 PM 38.0439 -82.4322 254° West 386 444 38,000  Level Indianapolis Center
Mon 01:36:35 PM 38.0106 -82.5897 255° West 396 456 38,000  Level Indianapolis Center
Mon 01:37:37 PM 37.9800 -82.7258 254° West 402 463 38,000  Level Indianapolis Center
Mon 01:38:39 PM 37.9494 -82.8642 254° West 407 468 38,000  Level Indianapolis Center
Mon 01:39:41 PM 37.9183 -83.0036 254° West 412 474 38,000  Level Indianapolis Center
Mon 01:40:42 PM 37.8872 -83.1433 254° West 413 475 38,000  Level Indianapolis Center
Mon 01:41:44 PM 37.8514 -83.3033 254° West 408 470 38,000  Level Indianapolis Center
Mon 01:42:46 PM 37.8197 -83.4411 254° West 407 468 38,000  Level Indianapolis Center
Mon 01:43:48 PM 37.7892 -83.5778 254° West 405 466 38,000  Level Indianapolis Center
Mon 01:44:49 PM 37.7575 -83.7136 254° West 405 466 38,000  Level Indianapolis Center
Mon 01:45:51 PM 37.7269 -83.8494 254° West 403 464 38,000  Level Indianapolis Center
Mon 01:46:53 PM 37.6950 -83.9861 254° West 406 467 38,000  Level Indianapolis Center
Mon 01:47:54 PM 37.6567 -84.1469 253° West 409 471 38,000  Level Indianapolis Center
Mon 01:48:56 PM 37.6169 -84.2817 250° West 410 472 38,000  Level Indianapolis Center
Mon 01:49:58 PM 37.5758 -84.4150 249° West 409 471 38,000  Level Indianapolis Center
Mon 01:51:00 PM 37.5342 -84.5503 249° West 411 473 38,000  Level Indianapolis Center
Mon 01:52:01 PM 37.4917 -84.6853 248° West 414 476 38,000  Level Indianapolis Center
Mon 01:53:03 PM 37.4503 -84.8200 249° West 411 473 38,000  Level Indianapolis Center
Mon 01:54:05 PM 37.4083 -84.9547 249° West 414 476 38,000  Level Indianapolis Center
Mon 01:55:06 PM 37.3600 -85.1100 249° West 408 470 38,000  Level Indianapolis Center
Mon 01:56:08 PM 37.3164 -85.2433 248° West 412 474 38,000  Level Indianapolis Center
Mon 01:57:09 PM 37.2744 -85.3767 248° West 409 471 38,000  Level Indianapolis Center
Mon 01:58:11 PM 37.2289 -85.5192 248° West 409 471 38,000  Level Indianapolis Center
Mon 01:59:13 PM 37.1900 -85.6392 248° West 414 476 38,000  Level Indianapolis Center
Mon 01:59:34 PM 37.1733 -85.6894 247° West 414 476 38,000  Level Memphis Center
Mon 02:00:34 PM 37.1325 -85.8244 249° West 414 476 38,000  Level Memphis Center
Mon 02:01:34 PM 37.0892 -85.9544 247° West 414 476 38,000  Level Memphis Center
Mon 02:02:34 PM 37.0458 -86.0867 248° West 419 482 38,000  Level Memphis Center
Mon 02:03:34 PM 37.0025 -86.2189 248° West 419 482 38,000  Level Memphis Center
Mon 02:04:34 PM 36.9589 -86.3536 248° West 419 482 38,000  Level Memphis Center
Mon 02:05:34 PM 36.9067 -86.4806 243° Southwest 419 482 38,000  Level Memphis Center
Mon 02:06:34 PM 36.8439 -86.6031 237° Southwest 424 488 38,000  Level Memphis Center
Mon 02:07:34 PM 36.7728 -86.7358 236° Southwest 425 489 38,000  Level Memphis Center
Mon 02:08:34 PM 36.7075 -86.8578 236° Southwest 425 489 38,000  Level Memphis Center
Mon 02:09:34 PM 36.6419 -86.9797 236° Southwest 430 495 38,000  Level Memphis Center
Mon 02:10:34 PM 36.5764 -87.1011 236° Southwest 430 495 38,000  Level Memphis Center
Mon 02:11:34 PM 36.5108 -87.2253 237° Southwest 430 495 38,000  Level Memphis Center
Mon 02:12:34 PM 36.4431 -87.3464 235° Southwest 430 495 38,000  Level Memphis Center
Mon 02:13:34 PM 36.3792 -87.4675 237° Southwest 430 495 38,000  Level Memphis Center
Mon 02:14:34 PM 36.3111 -87.5858 235° Southwest 430 495 38,000  Level Memphis Center
Mon 02:15:34 PM 36.2450 -87.7089 236° Southwest 435 501 38,000  Level Memphis Center
Mon 02:16:34 PM 36.1767 -87.8294 235° Southwest 429 494 38,000  Level Memphis Center
Mon 02:17:34 PM 36.1103 -87.9497 236° Southwest 427 491 38,000  Level Memphis Center
Mon 02:18:34 PM 36.0436 -88.0747 237° Southwest 433 498 38,000  Level Memphis Center
Mon 02:19:34 PM 35.9850 -88.1739 234° Southwest 425 489 38,000  Level Memphis Center
Mon 02:20:34 PM 35.9142 -88.2964 234° Southwest 425 489 38,000  Level Memphis Center
Mon 02:21:34 PM 35.8453 -88.4208 236° Southwest 435 501 38,000  Level Memphis Center
Mon 02:22:34 PM 35.7761 -88.5403 235° Southwest 435 501 38,000  Level Memphis Center
Mon 02:23:34 PM 35.7069 -88.6619 235° Southwest 435 501 38,000  Level Memphis Center
Mon 02:24:34 PM 35.6378 -88.7836 235° Southwest 435 501 38,000  Level Memphis Center
Mon 02:25:34 PM 35.5703 -88.9047 236° Southwest 430 495 38,000  Level Memphis Center
Mon 02:26:34 PM 35.5028 -89.0258 236° Southwest 430 495 38,000  Level Memphis Center
Mon 02:27:34 PM 35.4331 -89.1442 234° Southwest 430 495 38,000  Level Memphis Center
Mon 02:28:34 PM 35.3675 -89.2622 236° Southwest 427 491 38,000  Level Memphis Center
Mon 02:29:34 PM 35.2978 -89.3853 235° Southwest 432 497 38,000  Level Memphis Center
Mon 02:30:34 PM 35.2297 -89.5003 234° Southwest 432 497 38,000  Level Memphis Center
Mon 02:31:34 PM 35.1594 -89.6206 234° Southwest 432 497 38,000  Level Memphis Center
Mon 02:32:34 PM 35.0914 -89.7403 235° Southwest 432 497 38,000  Level Memphis Center
Mon 02:33:34 PM 35.0250 -89.8625 236° Southwest 432 497 38,000  Level Memphis Center
Mon 02:34:34 PM 34.9525 -89.9797 233° Southwest 437 503 38,000  Level Memphis Center
Mon 02:35:34 PM 34.8819 -90.0964 234° Southwest 437 503 38,000  Level Memphis Center
Mon 02:36:34 PM 34.8111 -90.2156 234° Southwest 437 503 38,000  Level Memphis Center
Mon 02:37:34 PM 34.7361 -90.3419 234° Southwest 432 497 38,000  Level Memphis Center
Mon 02:38:34 PM 34.6631 -90.4631 234° Southwest 432 497 38,000  Level Memphis Center
Mon 02:39:34 PM 34.5961 -90.5767 234° Southwest 432 497 38,000  Level Memphis Center
Mon 02:40:34 PM 34.5228 -90.6950 233° Southwest 432 497 38,000  Level Memphis Center
Mon 02:41:34 PM 34.4536 -90.8106 234° Southwest 432 497 38,000  Level Memphis Center
Mon 02:42:34 PM 34.3822 -90.9258 233° Southwest 432 497 38,000  Level Memphis Center
Mon 02:43:34 PM 34.3147 -91.0436 235° Southwest 432 497 38,000  Level Memphis Center
Mon 02:44:34 PM 34.2453 -91.1561 233° Southwest 432 497 38,000  Level Memphis Center
Mon 02:45:34 PM 34.1756 -91.2686 233° Southwest 432 497 38,000  Level Memphis Center
Mon 02:46:34 PM 34.1081 -91.3808 234° Southwest 432 497 38,000  Level Memphis Center
Mon 02:47:34 PM 34.0467 -91.4803 233° Southwest 427 491 38,000  Level Memphis Center
Mon 02:48:34 PM 33.9747 -91.5944 233° Southwest 427 491 38,000  Level Memphis Center
Mon 02:49:34 PM 33.9044 -91.7161 235° Southwest 427 491 38,000  Level Memphis Center
Mon 02:51:55 PM 33.7483 -91.9656 233° Southwest 422 486 38,000  Level Fort Worth Center
Mon 02:52:55 PM 33.6781 -92.0772 233° Southwest 433 498 38,000  Level Fort Worth Center
Mon 02:53:55 PM 33.6058 -92.1939 233° Southwest 444 511 38,000  Level Fort Worth Center
Mon 02:54:55 PM 33.5372 -92.3025 233° Southwest 437 503 38,000  Level Fort Worth Center
Mon 02:55:55 PM 33.4644 -92.4139 232° Southwest 431 496 38,000  Level Fort Worth Center
Mon 02:56:55 PM 33.3978 -92.5219 234° Southwest 425 489 38,000  Level Fort Worth Center
Mon 02:57:55 PM 33.3272 -92.6378 234° Southwest 426 490 38,000  Level Fort Worth Center
Mon 02:58:55 PM 33.2603 -92.7458 233° Southwest 426 490 38,000  Level Fort Worth Center
Mon 02:59:55 PM 33.2147 -92.8697 246° West 415 478 38,000  Level Fort Worth Center
Mon 03:00:55 PM 33.1733 -92.9961 249° West 409 471 38,000  Level Fort Worth Center
Mon 03:01:55 PM 33.1336 -93.1169 249° West 404 465 38,000  Level Fort Worth Center
Mon 03:02:55 PM 33.0919 -93.2431 249° West 399 459 38,000  Level Fort Worth Center
Mon 03:03:55 PM 33.0481 -93.3664 247° West 399 459 38,000  Level Fort Worth Center
Mon 03:04:55 PM 33.0022 -93.5022 248° West 399 459 38,000  Level Fort Worth Center
Mon 03:05:55 PM 32.9603 -93.6278 248° West 399 459 38,000  Level Fort Worth Center
Mon 03:06:55 PM 32.9178 -93.7508 248° West 404 465 38,000  Level Fort Worth Center
Mon 03:07:55 PM 32.8756 -93.8789 249° West 404 465 38,000  Level Fort Worth Center
Mon 03:08:55 PM 32.8311 -94.0042 247° West 409 471 38,000  Level Fort Worth Center
Mon 03:09:55 PM 32.7864 -94.1344 248° West 420 483 38,000  Level Fort Worth Center
Mon 03:10:55 PM 32.7417 -94.2594 247° West 420 483 38,000  Level Fort Worth Center
Mon 03:11:55 PM 32.6989 -94.3869 248° West 420 483 38,000  Level Fort Worth Center
Mon 03:12:55 PM 32.6539 -94.5142 247° West 420 483 38,000  Level Fort Worth Center
Mon 03:13:55 PM 32.6108 -94.6439 249° West 420 483 38,000  Level Fort Worth Center
Mon 03:14:55 PM 32.5656 -94.7683 247° West 420 483 38,000  Level Fort Worth Center
Mon 03:15:55 PM 32.5203 -94.8956 247° West 420 483 38,000  Level Fort Worth Center
Mon 03:16:55 PM 32.4767 -95.0222 248° West 420 483 38,000  Level Fort Worth Center
Mon 03:17:55 PM 32.4394 -95.1464 250° West 413 475 38,000  Level Fort Worth Center
Mon 03:18:55 PM 32.3994 -95.2581 247° West 413 475 38,000  Level Fort Worth Center
Mon 03:19:55 PM 32.3556 -95.3794 247° West 413 475 38,000  Level Fort Worth Center
Mon 03:20:55 PM 32.3117 -95.5058 248° West 408 470 38,000  Level Fort Worth Center
Mon 03:21:55 PM 32.2675 -95.6247 246° West 408 470 38,000  Level Fort Worth Center
Mon 03:22:55 PM 32.2233 -95.7458 247° West 403 464 38,000  Level Fort Worth Center
Mon 03:23:55 PM 32.1789 -95.8694 247° West 398 458 38,000  Level Fort Worth Center
Mon 03:24:55 PM 32.1303 -96.0003 246° West 398 458 38,000 -100 Level Fort Worth Center
Mon 03:25:55 PM 32.0878 -96.1186 247° West 398 458 37,800 -850 Descending Fort Worth Center
Mon 03:26:55 PM 32.0431 -96.2419 247° West 403 464 36,300 -1,500 Descending Fort Worth Center
Mon 03:27:55 PM 31.9961 -96.3722 247° West 414 476 34,800 -1,500 Descending Fort Worth Center
Mon 03:28:55 PM 31.9469 -96.5003 246° West 419 482 33,300 -1,550 Descending Fort Worth Center
Mon 03:29:55 PM 31.8997 -96.6278 246° West 427 491 31,700 -1,550 Descending Fort Worth Center
Mon 03:30:55 PM 31.8525 -96.7603 247° West 434 499 30,200 -1,400 Descending Fort Worth Center
Mon 03:31:55 PM 31.8092 -96.8731 246° West 434 499 28,900 -1,400 Descending Fort Worth Center
Mon 03:32:55 PM 31.7597 -97.0053 246° West 434 499 27,400 -1,500 Descending Fort Worth Center
Mon 03:33:55 PM 31.7078 -97.1253 243° Southwest 434 499 25,900 -1,532 Descending Fort Worth Center
Mon 03:35:16 PM 31.5378 -97.1869 197° South 473 544 23,800 -1,510 Descending Houston Center
Mon 03:36:18 PM 31.4067 -97.1950 183° South 466 536 22,300 -1,452 Descending Houston Center
Mon 03:37:20 PM 31.2814 -97.2047 184° South 453 521 20,800 -1,597 Descending Houston Center
Mon 03:38:22 PM 31.1622 -97.2281 190° South 438 504 19,000 -1,790 Descending Houston Center
Mon 03:39:24 PM 31.0542 -97.2692 198° South 414 476 17,100 -2,081 Descending Houston Center
Mon 03:40:26 PM 30.9278 -97.3197 199° South 403 464 14,700 -1,984 Descending Houston Center
Mon 03:41:28 PM 30.8261 -97.3589 198° South 389 448 13,000 -1,258 Descending Houston Center
Mon 03:42:30 PM 30.7350 -97.4083 205° Southwest 365 420 12,100 -1,152 Descending Houston Center
Mon 03:43:33 PM 30.6464 -97.4650 209° Southwest 366 421 10,600 -1,152 Descending Houston Center
Mon 03:44:35 PM 30.5700 -97.5139 209° Southwest 345 397 9,700 -1,440 Descending Houston Center
Mon 03:45:38 PM 30.4906 -97.5556 204° Southwest 299 344 7,600 -1,984 Descending Houston Center
Mon 03:46:39 PM 30.4267 -97.5908 205° Southwest 277 319 5,600 -2,000 Descending Houston Center
Mon 03:47:41 PM 30.3692 -97.6322 212° Southwest 260 299 3,500 -2,032 Descending Houston Center
Mon 03:49:00 PM 30.2256 -97.6632 221° Southwest  Level Estimated
Mon 03:56:00 PM 30.1945 -97.6699 221° Southwest  Level Estimated
Mon 03:57:00 PM 30.1945 -97.6699 221° Southwest  Level Estimated
Mon 03:58:00 PM 30.1945 -97.6699 221° Southwest  Level Estimated
Mon 03:59:00 PM 30.1945 -97.6699 221° Southwest  Level Estimated

Login

Don't have an account? Register now (free) for customized features, flight alerts, and more!